Time;durP1;ratioP1;P1;durP2;ratioP2;P2;SDS_P1;SDS_P2;PMS_P1;PMS_P2;Temp;Humidity;BMP_temperature;BMP_pressure;BME280_temperature;BME280_humidity;BME280_pressure;Samples;Min_cycle;Max_cycle;Signal;HPM_P1;HPM_P2
2021/04/15 00:02:10;;;;;;;6.70;3.07;;;;;;;1.99;80.08;102209.43;115490;1212;62425;-76
2021/04/15 00:04:36;;;;;;;4.25;2.60;;;;;;;2.00;80.44;102209.36;115506;1212;62626;-76
2021/04/15 00:07:03;;;;;;;5.73;3.03;;;;;;;2.02;80.12;102211.90;115554;1211;62394;-75
2021/04/15 00:09:29;;;;;;;7.00;2.70;;;;;;;2.03;80.16;102209.17;115501;1212;62338;-76
2021/04/15 00:11:56;;;;;;;3.27;1.80;;;;;;;2.06;80.09;102213.39;115525;1212;62157;-76
2021/04/15 00:14:23;;;;;;;7.50;3.10;;;;;;;2.04;80.10;102210.88;115568;1212;62301;-76
2021/04/15 00:16:50;;;;;;;4.00;2.17;;;;;;;2.04;80.06;102215.28;115419;1212;62491;-76
2021/04/15 00:19:19;;;;;;;3.17;2.20;;;;;;;2.03;80.11;102209.17;115565;1212;62337;-76
2021/04/15 00:21:49;;;;;;;5.13;2.37;;;;;;;2.04;80.29;102210.88;115569;1212;64126;-76
2021/04/15 00:24:16;;;;;;;4.03;2.10;;;;;;;2.07;80.06;102206.41;115500;1212;63169;-75
2021/04/15 00:26:43;;;;;;;4.45;2.45;;;;;;;2.10;79.97;102211.47;115501;1212;63450;-75
2021/04/15 00:29:09;;;;;;;5.20;2.50;;;;;;;2.10;80.14;102208.85;115509;1212;62347;-76
2021/04/15 00:31:36;;;;;;;5.50;2.70;;;;;;;2.12;80.15;102207.00;115500;1212;62310;-77
2021/04/15 00:34:02;;;;;;;6.07;1.90;;;;;;;2.11;80.14;102200.92;115493;1212;63209;-76
2021/04/15 00:36:29;;;;;;;5.40;1.90;;;;;;;2.12;80.23;102207.83;115675;1212;62422;-75
2021/04/15 00:38:56;;;;;;;2.30;1.60;;;;;;;2.13;80.51;102203.47;115533;1212;63222;-75
2021/04/15 00:41:23;;;;;;;4.37;2.20;;;;;;;2.12;80.02;102201.77;115649;1212;62702;-75
2021/04/15 00:43:51;;;;;;;2.83;1.90;;;;;;;2.11;80.01;102205.32;115515;1212;62750;-75
2021/04/15 00:46:46;;;;;;;2.20;1.40;;;;;;;2.07;80.29;102203.80;115526;1212;62443;-75
2021/04/15 00:49:27;;;;;;;7.95;2.08;;;;;;;2.03;80.45;102198.70;115650;1212;61960;-75
2021/04/15 00:51:59;;;;;;;6.50;2.15;;;;;;;2.02;80.38;102202.27;115549;1210;62326;-75
2021/04/15 00:54:31;;;;;;;5.83;2.83;;;;;;;1.98;80.41;102208.59;115518;1212;62391;-73
2021/04/15 00:56:59;;;;;;;4.70;2.30;;;;;;;1.96;80.57;102205.20;115679;1212;63108;-73
2021/04/15 00:59:26;;;;;;;6.00;3.00;;;;;;;1.93;80.49;102202.73;115499;1212;64100;-76
2021/04/15 01:01:54;;;;;;;3.63;2.23;;;;;;;1.88;81.04;102210.00;115544;1212;62460;-74
2021/04/15 01:04:22;;;;;;;3.50;2.27;;;;;;;1.83;80.93;102204.17;115507;1212;62380;-74
2021/04/15 01:06:50;;;;;;;4.87;2.60;;;;;;;1.77;81.05;102207.95;115570;1212;63175;-74
2021/04/15 01:09:17;;;;;;;4.00;2.00;;;;;;;1.73;81.16;102203.80;115645;1212;62224;-74
2021/04/15 01:12:09;;;;;;;4.00;2.40;;;;;;;1.68;80.92;102211.06;115666;1211;62296;-74
2021/04/15 01:14:54;;;;;;;10.70;3.17;;;;;;;1.66;81.28;102205.06;115495;1212;62399;-74
2021/04/15 01:17:33;;;;;;;6.53;3.33;;;;;;;1.65;81.02;102205.13;115534;1211;63881;-75
2021/04/15 01:20:37;;;;;;;6.70;3.07;;;;;;;1.62;81.13;102206.98;115499;1212;62975;-74
2021/04/15 01:23:36;;;;;;;5.05;2.60;;;;;;;1.57;81.01;102206.38;115655;1212;62329;-75
2021/04/15 01:26:25;;;;;;;7.90;3.65;;;;;;;1.51;81.63;102205.83;115745;1212;62564;-75
2021/04/15 01:29:23;;;;;;;5.80;2.55;;;;;;;1.46;82.59;102202.61;115651;1212;62689;-75
2021/04/15 01:32:13;;;;;;;5.20;2.30;;;;;;;1.40;82.12;102204.63;115623;1211;62976;-74
2021/04/15 01:34:49;;;;;;;6.30;3.60;;;;;;;1.37;82.50;102207.39;115662;1212;62174;-74
2021/04/15 01:37:18;;;;;;;6.20;3.50;;;;;;;1.36;82.46;102202.23;115516;1212;62306;-74
2021/04/15 01:39:51;;;;;;;8.30;3.80;;;;;;;1.33;82.05;102208.47;115745;1212;62484;-73
2021/04/15 01:42:28;;;;;;;5.53;3.23;;;;;;;1.31;81.85;102209.47;115523;1211;62563;-74
2021/04/15 01:45:01;;;;;;;9.30;3.95;;;;;;;1.24;82.28;102208.94;115520;1212;63220;-74
2021/04/15 01:47:53;;;;;;;5.60;3.10;;;;;;;1.17;82.28;102213.63;115625;1212;63556;-74
2021/04/15 01:50:26;;;;;;;8.90;4.00;;;;;;;1.10;82.51;102211.39;115474;1211;63414;-74
2021/04/15 01:52:58;;;;;;;8.20;5.20;;;;;;;1.05;82.45;102214.23;115514;1212;62380;-75
2021/04/15 01:56:11;;;;;;;7.40;4.60;;;;;;;1.03;82.76;102216.08;115509;1211;62373;-74
2021/04/15 01:58:52;;;;;;;12.53;6.07;;;;;;;0.98;83.11;102218.08;115225;1215;62886;-74
2021/04/15 02:01:23;;;;;;;9.90;5.90;;;;;;;0.94;83.45;102216.53;115464;1212;62280;-74
2021/04/15 02:03:55;;;;;;;10.57;6.70;;;;;;;0.90;83.37;102215.83;115509;1212;64169;-73
2021/04/15 02:06:26;;;;;;;14.10;6.40;;;;;;;0.89;83.38;102218.52;115519;1212;62407;-74
2021/04/15 02:08:58;;;;;;;11.00;5.40;;;;;;;0.87;82.94;102220.34;115687;1212;62564;-75
2021/04/15 02:11:33;;;;;;;14.20;6.30;;;;;;;0.85;83.63;102227.41;115491;1212;62376;-75
2021/04/15 02:14:02;;;;;;;11.78;5.80;;;;;;;0.80;83.53;102231.09;115507;1212;62551;-75
2021/04/15 02:16:34;;;;;;;15.20;6.65;;;;;;;0.75;83.45;102222.64;115587;1212;62277;-75
2021/04/15 02:19:08;;;;;;;15.47;6.57;;;;;;;0.73;83.50;102224.48;115589;1212;62229;-75
2021/04/15 02:21:47;;;;;;;13.15;6.60;;;;;;;0.71;83.69;102221.09;115509;1212;62603;-75
2021/04/15 02:24:28;;;;;;;12.80;6.20;;;;;;;0.67;83.57;102222.16;115547;1212;64041;-74
2021/04/15 02:27:06;;;;;;;9.10;5.77;;;;;;;0.66;83.89;102222.22;115510;1212;62382;-74
2021/04/15 02:29:36;;;;;;;11.37;5.80;;;;;;;0.59;84.05;102227.73;115588;1212;62243;-74
2021/04/15 02:32:49;;;;;;;10.50;4.30;;;;;;;0.54;83.83;102232.34;115562;1212;62270;-74
2021/04/15 02:35:26;;;;;;;9.60;4.77;;;;;;;0.47;84.31;102230.95;115371;1214;63044;-74
2021/04/15 02:37:58;;;;;;;10.45;5.50;;;;;;;0.45;84.03;102229.30;115508;1211;62897;-74
2021/04/15 02:40:29;;;;;;;10.45;6.15;;;;;;;0.39;84.82;102226.07;115511;1212;62765;-74
2021/04/15 02:43:00;;;;;;;10.37;5.70;;;;;;;0.37;84.65;102227.91;115580;1212;62605;-74
2021/04/15 02:45:34;;;;;;;10.55;5.25;;;;;;;0.33;85.34;102226.34;115662;1211;62257;-74
2021/04/15 02:48:28;;;;;;;10.13;4.75;;;;;;;0.31;84.82;102230.79;115535;1212;62468;-75
2021/04/15 02:51:01;;;;;;;8.60;4.50;;;;;;;0.26;84.99;102226.72;115682;1212;62234;-75
2021/04/15 02:53:33;;;;;;;7.75;4.55;;;;;;;0.20;84.96;102227.84;115484;1212;62511;-76
2021/04/15 02:56:08;;;;;;;9.60;5.37;;;;;;;0.13;85.60;102216.00;115526;1212;62436;-76
2021/04/15 02:58:47;;;;;;;8.88;5.28;;;;;;;0.09;85.84;102219.66;115530;1212;62919;-76
2021/04/15 03:01:18;;;;;;;12.87;5.27;;;;;;;0.08;85.58;102229.23;115569;1212;62233;-76
2021/04/15 03:03:49;;;;;;;11.65;6.35;;;;;;;0.06;85.45;102232.83;115533;1212;63233;-75
2021/04/15 03:06:22;;;;;;;13.03;5.90;;;;;;;0.03;85.98;102227.76;115462;1212;62853;-76
2021/04/15 03:08:56;;;;;;;7.05;4.40;;;;;;;0.00;85.99;102231.36;115506;1212;62671;-76
2021/04/15 03:11:29;;;;;;;8.00;4.35;;;;;;;-0.06;85.92;102232.47;115534;1212;62296;-75
2021/04/15 03:13:59;;;;;;;7.63;4.63;;;;;;;-0.12;85.93;102224.08;115541;1212;63027;-76
2021/04/15 03:16:32;;;;;;;10.57;4.87;;;;;;;-0.18;86.67;102225.18;115645;1212;62909;-76
2021/04/15 03:19:04;;;;;;;10.30;5.40;;;;;;;-0.21;86.21;102225.33;115620;1211;62411;-76
2021/04/15 03:21:40;;;;;;;9.80;6.23;;;;;;;-0.25;86.59;102234.20;115558;1212;62133;-76
2021/04/15 03:24:12;;;;;;;10.40;5.83;;;;;;;-0.29;86.54;102235.24;115747;1211;62622;-76
2021/04/15 03:26:58;;;;;;;9.60;5.50;;;;;;;-0.34;86.83;102232.84;115528;1212;62517;-76
2021/04/15 03:29:28;;;;;;;11.13;5.87;;;;;;;-0.41;86.71;102229.63;115493;1212;64656;-76
2021/04/15 03:32:21;;;;;;;10.60;5.30;;;;;;;-0.45;86.38;102235.91;115625;1211;62368;-76
2021/04/15 03:35:06;;;;;;;10.73;5.07;;;;;;;-0.50;86.93;102242.22;115467;1212;62561;-76
2021/04/15 03:37:59;;;;;;;10.65;6.40;;;;;;;-0.54;86.59;102238.89;115544;1212;62883;-76
2021/04/15 03:40:29;;;;;;;14.87;6.67;;;;;;;-0.57;87.68;102241.64;115516;1212;62496;-76
2021/04/15 03:43:04;;;;;;;10.37;6.00;;;;;;;-0.57;87.88;102244.25;115536;1212;62880;-76
2021/04/15 03:45:37;;;;;;;9.00;5.70;;;;;;;-0.57;87.68;102232.95;115540;1212;62189;-76
2021/04/15 03:48:11;;;;;;;8.10;5.00;;;;;;;-0.62;87.16;102241.84;115679;1212;64081;-76
2021/04/15 03:50:56;;;;;;;10.03;5.17;;;;;;;-0.65;87.73;102241.11;115652;1212;62392;-76
2021/04/15 03:53:39;;;;;;;12.80;5.00;;;;;;;-0.70;87.99;102230.02;115533;1212;62357;-74
2021/04/15 03:56:24;;;;;;;9.17;5.60;;;;;;;-0.73;88.15;102235.37;115777;1212;63025;-75
2021/04/15 03:59:00;;;;;;;15.37;6.80;;;;;;;-0.77;87.82;102231.19;115520;1211;62267;-75
2021/04/15 04:01:32;;;;;;;14.03;7.10;;;;;;;-0.79;88.08;102238.22;115709;1212;62364;-75
2021/04/15 04:04:33;;;;;;;15.45;6.65;;;;;;;-0.82;88.35;102229.63;115511;1212;64394;-75
2021/04/15 04:07:07;;;;;;;9.90;6.50;;;;;;;-0.84;87.96;102243.63;115488;1212;62564;-74
2021/04/15 04:10:13;;;;;;;9.63;5.47;;;;;;;-0.90;87.75;102236.90;115057;1212;62990;-76
2021/04/15 04:13:18;;;;;;;9.20;5.40;;;;;;;-0.95;88.07;102238.86;115626;1212;62836;-76
2021/04/15 04:15:50;;;;;;;13.35;7.40;;;;;;;-0.97;88.22;102248.48;115486;1212;62134;-77
2021/04/15 04:18:19;;;;;;;15.25;7.10;;;;;;;-1.00;88.61;102253.80;115498;1212;62317;-76
2021/04/15 04:20:46;;;;;;;14.35;7.25;;;;;;;-1.04;87.91;102253.10;115608;1212;62266;-76
2021/04/15 04:23:44;;;;;;;16.90;6.50;;;;;;;-1.07;88.27;102255.81;115486;1212;62839;-75
2021/04/15 04:26:25;;;;;;;11.20;5.50;;;;;;;-1.11;88.24;102258.61;115496;1212;62093;-76
2021/04/15 04:29:19;;;;;;;11.37;5.50;;;;;;;-1.14;88.03;102258.74;115551;1212;64146;-76
2021/04/15 04:31:50;;;;;;;15.83;7.40;;;;;;;-1.16;88.45;102257.95;115633;1212;62155;-76
2021/04/15 04:34:20;;;;;;;13.17;7.50;;;;;;;-1.18;88.64;102262.38;115557;1212;62731;-75
2021/04/15 04:36:49;;;;;;;11.77;7.33;;;;;;;-1.22;88.36;102261.63;115589;1212;64117;-75
2021/04/15 04:39:17;;;;;;;11.57;6.07;;;;;;;-1.21;88.38;102257.27;115466;1212;62324;-74
2021/04/15 04:42:25;;;;;;;11.60;5.60;;;;;;;-1.23;89.24;102267.77;115686;1212;62302;-75
2021/04/15 04:44:57;;;;;;;15.95;7.85;;;;;;;-1.21;89.20;102272.89;115375;1212;62266;-75
2021/04/15 04:48:01;;;;;;;17.73;7.53;;;;;;;-1.19;89.22;102276.28;115488;1212;62443;-74
2021/04/15 04:50:32;;;;;;;14.65;7.10;;;;;;;-1.19;89.33;102273.68;115647;1212;64177;-74
2021/04/15 04:53:12;;;;;;;17.77;8.13;;;;;;;-1.17;88.49;102279.67;115525;1212;62571;-74
2021/04/15 04:55:56;;;;;;;10.10;6.00;;;;;;;-1.19;88.95;102273.68;115302;1212;63731;-74
2021/04/15 04:58:23;;;;;;;10.15;6.00;;;;;;;-1.17;89.12;102279.67;115539;1212;62350;-74
2021/04/15 05:00:52;;;;;;;12.90;6.50;;;;;;;-1.17;88.84;102269.26;115550;1212;63129;-74
2021/04/15 05:03:24;;;;;;;13.77;7.23;;;;;;;-1.13;89.32;102281.25;115696;1212;62883;-74
2021/04/15 05:06:20;;;;;;;12.95;7.45;;;;;;;-1.12;88.62;102278.59;115451;1212;62725;-74
2021/04/15 05:09:04;;;;;;;;;;;;;;;-1.07;88.94;102283.63;115547;1219;62190;-74
2021/04/15 05:11:33;;;;;;;11.43;5.70;;;;;;;-1.05;88.92;102285.25;115564;1212;62462;-75
2021/04/15 05:14:01;;;;;;;15.70;6.70;;;;;;;-1.00;88.81;102285.06;115545;1212;62468;-75
2021/04/15 05:16:36;;;;;;;9.77;5.73;;;;;;;-0.96;88.99;102291.84;115533;1212;62104;-74
2021/04/15 05:19:03;;;;;;;16.70;7.90;;;;;;;-0.92;89.26;102296.03;115633;1212;62307;-75
2021/04/15 05:21:32;;;;;;;22.73;7.70;;;;;;;-0.88;88.60;102301.98;115538;1212;62493;-74
2021/04/15 05:24:09;;;;;;;13.45;7.45;;;;;;;-0.84;88.60;102295.73;115520;1212;62611;-74
2021/04/15 05:26:39;;;;;;;9.67;5.57;;;;;;;-0.79;88.89;102292.94;115564;1212;62160;-76
2021/04/15 05:29:09;;;;;;;10.15;5.45;;;;;;;-0.74;89.16;102301.44;115375;1212;64295;-75
2021/04/15 05:31:42;;;;;;;12.77;7.47;;;;;;;-0.68;88.58;102301.16;115439;1212;62687;-74
2021/04/15 05:34:32;;;;;;;18.53;8.83;;;;;;;-0.58;88.84;102309.46;115361;1212;63442;-76
2021/04/15 05:37:06;;;;;;;21.40;9.05;;;;;;;-0.49;89.33;102309.07;115538;1212;62437;-75
2021/04/15 05:39:32;;;;;;;36.00;10.30;;;;;;;-0.39;89.27;102314.77;115566;1212;63156;-76
2021/04/15 05:42:02;;;;;;;48.50;16.45;;;;;;;-0.29;88.79;102319.53;115535;1212;62380;-75
2021/04/15 05:44:42;;;;;;;35.53;11.00;;;;;;;-0.20;88.34;102318.29;115756;1212;62595;-75
2021/04/15 05:47:31;;;;;;;39.47;12.53;;;;;;;-0.12;88.78;102318.81;115467;1212;62743;-75
2021/04/15 05:50:06;;;;;;;47.37;13.60;;;;;;;-0.07;88.42;102322.06;115680;1211;63092;-75
2021/04/15 05:52:47;;;;;;;34.50;9.98;;;;;;;-0.01;88.34;102326.17;115481;1212;62866;-75
2021/04/15 05:55:17;;;;;;;37.90;12.23;;;;;;;0.08;87.50;102323.16;115488;1212;62456;-75
2021/04/15 05:57:49;;;;;;;27.40;10.50;;;;;;;0.15;87.24;102322.00;115439;1210;62926;-75
2021/04/15 06:00:23;;;;;;;20.40;8.80;;;;;;;0.20;87.41;102322.63;115670;1212;63376;-75
2021/04/15 06:02:55;;;;;;;;;;;;;;;0.26;86.92;102324.13;115557;1219;62369;-75
2021/04/15 06:05:25;;;;;;;10.70;4.27;;;;;;;0.28;86.85;102322.30;115564;1211;63201;-75
2021/04/15 06:07:55;;;;;;;16.47;7.40;;;;;;;0.34;87.21;102322.03;115709;1211;62259;-76
2021/04/15 06:10:24;;;;;;;8.75;4.40;;;;;;;0.39;86.60;102335.71;115488;1212;62289;-75
2021/04/15 06:12:54;;;;;;;15.15;5.90;;;;;;;0.46;86.44;102327.61;115467;1212;62246;-74
2021/04/15 06:15:27;;;;;;;16.13;7.73;;;;;;;0.55;86.02;102335.02;115534;1212;62673;-75
2021/04/15 06:18:15;;;;;;;11.80;6.60;;;;;;;0.63;85.89;102332.06;115468;1212;62337;-75
2021/04/15 06:20:46;;;;;;;10.93;4.90;;;;;;;0.71;86.07;102336.02;115434;1212;64157;-75
2021/04/15 06:23:22;;;;;;;9.90;5.40;;;;;;;0.78;85.69;102336.58;115565;1212;64231;-73
2021/04/15 06:25:50;;;;;;;9.60;5.00;;;;;;;0.87;85.75;102336.17;115487;1212;62917;-74
2021/04/15 06:28:19;;;;;;;6.03;3.20;;;;;;;;;;115554;1212;62347;-74
2021/04/15 06:31:01;;;;;;;14.20;6.13;;;;;;;1.04;84.77;102345.80;115494;1212;62435;-75
2021/04/15 06:33:29;;;;;;;12.80;5.83;;;;;;;1.16;84.54;102342.61;115594;1212;63088;-75
2021/04/15 06:35:59;;;;;;;10.83;5.80;;;;;;;1.31;84.06;102340.19;115528;1212;62448;-74
2021/04/15 06:38:57;;;;;;;14.07;4.50;;;;;;;1.45;83.39;102348.22;115778;1212;62385;-74
2021/04/15 06:41:39;;;;;;;8.87;3.20;;;;;;;1.56;82.60;102345.91;115578;1212;62508;-75
2021/04/15 06:44:30;;;;;;;17.30;5.37;;;;;;;1.69;82.60;102337.47;115495;1212;62696;-75
2021/04/15 06:47:16;;;;;;;12.93;4.87;;;;;;;1.82;82.40;102333.30;115574;1212;62255;-75
2021/04/15 06:49:51;;;;;;;5.60;3.00;;;;;;;1.98;81.50;102339.45;115737;1212;62492;-75
2021/04/15 06:52:37;;;;;;;9.13;3.17;;;;;;;2.11;81.31;102347.52;115555;1212;63694;-76
2021/04/15 06:55:09;;;;;;;;;;;;;;;2.26;80.90;102335.41;115712;1216;62229;-75
2021/04/15 06:58:17;;;;;;;12.03;5.20;;;;;;;2.40;80.81;102338.15;115531;1212;64201;-75
2021/04/15 07:01:02;;;;;;;9.75;4.40;;;;;;;2.63;80.00;102341.30;115562;1211;62594;-73
2021/04/15 07:03:57;;;;;;;7.25;3.33;;;;;;;2.76;79.19;102329.23;115585;1212;62164;-74
2021/04/15 07:06:39;;;;;;;10.80;4.95;;;;;;;2.85;78.71;102331.34;115528;1212;62285;-76
2021/04/15 07:09:20;;;;;;;5.40;3.00;;;;;;;2.99;77.18;102334.97;115593;1212;62178;-74
2021/04/15 07:12:23;;;;;;;8.00;3.20;;;;;;;3.09;76.38;102336.16;115559;1212;62423;-75
2021/04/15 07:15:14;;;;;;;11.45;4.10;;;;;;;3.25;75.09;102334.38;115765;1212;62887;-75
2021/04/15 07:18:06;;;;;;;5.30;3.30;;;;;;;3.43;74.40;102342.12;115531;1212;62324;-74
2021/04/15 07:20:46;;;;;;;10.75;4.60;;;;;;;3.66;73.16;102331.13;115604;1212;62294;-75
2021/04/15 07:23:32;;;;;;;10.67;4.23;;;;;;;3.88;72.99;102341.20;115567;1212;62499;-75
2021/04/15 07:26:37;;;;;;;11.50;4.90;;;;;;;4.09;72.83;102344.34;115567;1212;62691;-74
2021/04/15 07:29:16;;;;;;;9.45;3.25;;;;;;;4.31;71.51;102343.03;115664;1211;62418;-74
2021/04/15 07:32:14;;;;;;;10.40;3.75;;;;;;;4.47;70.37;102343.80;115804;1211;62290;-74
2021/04/15 07:34:50;;;;;;;4.67;1.97;;;;;;;4.61;67.95;102342.08;115481;1212;62577;-76
2021/04/15 07:37:47;;;;;;;7.30;3.00;;;;;;;4.75;68.31;102347.33;115567;1212;62222;-73
2021/04/15 07:40:46;;;;;;;7.75;3.70;;;;;;;4.85;67.30;102337.93;115545;1212;62536;-74
2021/04/15 07:43:59;;;;;;;8.37;4.03;;;;;;;4.96;66.61;102341.67;115596;1212;63756;-74
2021/04/15 07:46:45;;;;;;;10.35;4.70;;;;;;;5.10;66.39;102347.73;115517;1212;62368;-74
2021/04/15 07:49:48;;;;;;;7.95;3.15;;;;;;;5.18;64.32;102349.02;115582;1212;62769;-74
2021/04/15 07:52:34;;;;;;;6.60;2.87;;;;;;;5.18;65.06;102349.02;115589;1211;62220;-75
2021/04/15 07:55:20;;;;;;;4.15;1.95;;;;;;;5.16;64.62;102341.22;115600;1212;62030;-75
2021/04/15 07:57:57;;;;;;;8.67;3.17;;;;;;;5.17;64.38;102342.08;115580;1212;62963;-75
2021/04/15 08:00:37;;;;;;;8.40;3.67;;;;;;;5.21;64.75;102344.41;115554;1212;62447;-75
2021/04/15 08:03:29;;;;;;;10.00;3.63;;;;;;;5.33;65.20;102344.55;115555;1212;62493;-73
2021/04/15 08:06:12;;;;;;;7.03;2.63;;;;;;;5.39;62.89;102346.78;115545;1212;62758;-75
2021/04/15 08:09:18;;;;;;;9.90;3.00;;;;;;;5.45;63.19;102349.02;115546;1212;62318;-75
2021/04/15 08:12:06;;;;;;;7.63;4.00;;;;;;;5.60;63.50;102342.73;115553;1212;62927;-76
2021/04/15 08:14:35;;;;;;;8.50;3.07;;;;;;;5.83;62.17;102350.89;115769;1211;62219;-76
2021/04/15 08:17:15;;;;;;;11.00;3.90;;;;;;;6.05;62.61;102356.41;115561;1212;62750;-75
2021/04/15 08:20:03;;;;;;;11.00;4.00;;;;;;;6.39;62.60;102354.09;115585;1212;62570;-74
2021/04/15 08:22:56;;;;;;;9.00;3.00;;;;;;;6.74;59.86;102358.70;115787;1212;62325;-74
2021/04/15 08:25:41;;;;;;;4.67;1.90;;;;;;;7.02;57.85;102346.17;115566;1212;62611;-74
2021/04/15 08:28:26;;;;;;;7.40;2.45;;;;;;;7.24;56.12;102351.55;115735;1212;62843;-73
2021/04/15 08:31:46;;;;;;;4.53;1.73;;;;;;;7.37;54.45;102355.94;115745;1212;62531;-74
2021/04/15 08:34:29;;;;;;;7.70;2.75;;;;;;;7.51;55.08;102353.13;115813;1212;62126;-73
2021/04/15 08:37:17;;;;;;;5.57;2.37;;;;;;;7.66;53.13;102356.42;115890;1212;62411;-73
2021/04/15 08:39:56;;;;;;;5.73;2.13;;;;;;;7.76;53.65;102352.97;115570;1212;62648;-73
2021/04/15 08:43:01;;;;;;;5.45;1.75;;;;;;;7.80;51.23;102355.36;115498;1212;62383;-73
2021/04/15 08:45:53;;;;;;;3.45;1.50;;;;;;;7.89;51.10;102350.23;115505;1212;62440;-73
2021/04/15 08:48:29;;;;;;;3.30;1.40;;;;;;;7.96;48.81;102346.16;115516;1212;62476;-74
2021/04/15 08:51:21;;;;;;;5.80;1.70;;;;;;;8.03;49.16;102351.81;115498;1212;62572;-74
2021/04/15 08:54:11;;;;;;;3.87;1.90;;;;;;;8.19;49.56;102345.38;115644;1211;62322;-73
2021/04/15 08:56:54;;;;;;;4.35;1.40;;;;;;;8.27;47.70;102346.45;115569;1212;62548;-74
2021/04/15 08:59:41;;;;;;;2.27;1.17;;;;;;;8.28;46.65;102348.13;115544;1212;62290;-73
2021/04/15 09:02:22;;;;;;;6.90;1.60;;;;;;;8.32;46.19;102343.45;115570;1212;62602;-74
2021/04/15 09:05:08;;;;;;;4.15;2.00;;;;;;;8.39;46.49;102342.00;115552;1212;62788;-74
2021/04/15 09:07:59;;;;;;;2.40;1.10;;;;;;;8.48;47.10;102346.63;115604;1212;62840;-74
2021/04/15 09:10:36;;;;;;;4.20;1.10;;;;;;;8.51;45.20;102343.72;115832;1212;62737;-74
2021/04/15 09:13:14;;;;;;;3.10;1.23;;;;;;;8.57;45.81;102345.88;115636;1211;62154;-73
2021/04/15 09:15:57;;;;;;;4.70;1.40;;;;;;;8.61;44.40;102345.63;115569;1212;62247;-73
2021/04/15 09:18:33;;;;;;;2.13;1.10;;;;;;;8.61;44.18;102348.27;115563;1212;62805;-75
2021/04/15 09:21:21;;;;;;;2.50;1.30;;;;;;;8.80;46.49;102345.88;115507;1212;63426;-73
2021/04/15 09:24:14;;;;;;;2.43;1.30;;;;;;;9.00;45.40;102343.42;115894;1212;62225;-73
2021/04/15 09:27:20;;;;;;;5.57;1.63;;;;;;;8.97;43.58;102348.00;115569;1212;62190;-73
2021/04/15 09:29:54;;;;;;;4.20;1.50;;;;;;;9.03;43.83;102333.44;115533;1212;62282;-73
2021/04/15 09:32:29;;;;;;;3.60;1.20;;;;;;;9.07;44.08;102344.59;115602;1212;62347;-73
2021/04/15 09:35:32;;;;;;;7.25;2.85;;;;;;;9.19;44.32;102333.02;115579;1212;64185;-73
2021/04/15 09:38:08;;;;;;;3.35;1.30;;;;;;;9.33;42.93;102345.97;115562;1212;62515;-73
2021/04/15 09:41:01;;;;;;;2.35;1.15;;;;;;;9.43;41.54;102335.44;115810;1212;62383;-73
2021/04/15 09:43:47;;;;;;;6.73;2.40;;;;;;;9.59;42.56;102335.02;115508;1212;62400;-74
2021/04/15 09:46:20;;;;;;;5.10;1.90;;;;;;;9.83;43.93;102329.45;115798;1212;62521;-73
2021/04/15 09:49:18;;;;;;;3.35;1.25;;;;;;;9.97;42.24;102328.30;115508;1212;62214;-74
2021/04/15 09:52:02;;;;;;;3.90;1.20;;;;;;;10.12;42.25;102323.50;115511;1212;62421;-74
2021/04/15 09:54:51;;;;;;;2.50;1.50;;;;;;;10.25;41.73;102324.11;115543;1212;62105;-74
2021/04/15 09:57:43;;;;;;;3.00;1.40;;;;;;;10.36;40.18;102317.91;115562;1212;62333;-74
2021/04/15 10:00:22;;;;;;;2.55;1.60;;;;;;;10.43;40.71;102319.03;115590;1211;62444;-73
2021/04/15 10:03:07;;;;;;;2.20;1.25;;;;;;;10.40;40.32;102309.54;115543;1212;62440;-73
2021/04/15 10:05:38;;;;;;;2.20;1.17;;;;;;;10.45;38.42;102309.13;115775;1212;62585;-75
2021/04/15 10:08:34;;;;;;;3.63;1.20;;;;;;;10.49;37.24;102307.89;115513;1212;62125;-75
2021/04/15 10:11:41;;;;;;;3.10;0.95;;;;;;;10.68;39.18;102300.97;115460;1212;62973;-75
2021/04/15 10:14:26;;;;;;;5.35;1.90;;;;;;;10.84;38.01;102301.29;115788;1212;62358;-74
2021/04/15 10:17:11;;;;;;;2.00;0.90;;;;;;;10.75;37.76;102302.95;115539;1212;62107;-75
2021/04/15 10:19:55;;;;;;;2.95;1.00;;;;;;;10.59;36.51;102300.80;115587;1212;62511;-75
2021/04/15 10:22:57;;;;;;;5.20;1.80;;;;;;;10.74;39.72;102293.30;115552;1212;62268;-75
2021/04/15 10:25:47;;;;;;;4.67;1.27;;;;;;;10.95;38.22;102300.33;115563;1212;62306;-75
2021/04/15 10:28:51;;;;;;;2.35;1.30;;;;;;;10.91;37.73;102301.58;115430;1212;63242;-76
2021/04/15 10:31:48;;;;;;;2.17;1.00;;;;;;;10.67;36.87;102293.97;115807;1212;63626;-76
2021/04/15 10:34:37;;;;;;;4.27;1.30;;;;;;;10.58;38.38;102300.93;115532;1212;63119;-75
2021/04/15 10:37:22;;;;;;;2.55;0.95;;;;;;;10.47;38.17;102288.61;115788;1212;62189;-75
2021/04/15 10:40:04;;;;;;;;;;;;;;;10.30;37.91;102291.91;115818;1216;64272;-75
2021/04/15 10:43:19;;;;;;;2.40;1.20;;;;;;;10.18;38.50;102288.50;115571;1212;62176;-76
2021/04/15 10:46:23;;;;;;;5.00;1.00;;;;;;;10.32;37.97;102289.96;115597;1212;62954;-75
2021/04/15 10:49:16;;;;;;;1.75;0.85;;;;;;;10.61;39.21;102284.75;115604;1211;64218;-76
2021/04/15 10:51:59;;;;;;;2.80;1.30;;;;;;;10.86;37.23;102288.72;115592;1211;62354;-76
2021/04/15 10:54:45;;;;;;;2.37;1.10;;;;;;;10.85;37.82;102281.71;115583;1212;62235;-75
2021/04/15 10:57:36;;;;;;;2.25;0.90;;;;;;;10.68;37.57;102285.88;115845;1211;62294;-75
2021/04/15 11:00:18;;;;;;;3.10;1.60;;;;;;;10.56;37.62;102286.95;115541;1212;62227;-75
2021/04/15 11:03:18;;;;;;;4.07;1.70;;;;;;;10.49;38.74;102276.05;115691;1211;62302;-74
2021/04/15 11:05:48;;;;;;;2.03;1.07;;;;;;;10.63;37.12;102272.19;115683;1211;62484;-74
2021/04/15 11:08:25;;;;;;;2.10;1.10;;;;;;;10.64;37.15;102278.33;115591;1212;62249;-74
2021/04/15 11:11:17;;;;;;;4.17;1.20;;;;;;;10.46;37.28;102275.50;115806;1212;62146;-74
2021/04/15 11:13:45;;;;;;;1.20;0.55;;;;;;;10.34;37.69;102272.10;115553;1212;62401;-75
2021/04/15 11:16:20;;;;;;;3.30;1.25;;;;;;;10.29;38.77;102272.51;115550;1212;62522;-76
2021/04/15 11:18:47;;;;;;;1.85;0.85;;;;;;;10.21;38.76;102267.83;115581;1212;61993;-77
2021/04/15 11:21:20;;;;;;;1.70;1.00;;;;;;;10.01;37.35;102271.39;115601;1212;62346;-76
2021/04/15 11:23:51;;;;;;;2.67;0.90;;;;;;;9.91;38.22;102273.98;115548;1212;62215;-77
2021/04/15 11:26:42;;;;;;;1.97;1.00;;;;;;;9.88;37.89;102271.61;115547;1212;62757;-77
2021/04/15 11:29:49;;;;;;;2.07;0.77;;;;;;;9.94;39.34;102257.80;115603;1212;62233;-77
2021/04/15 11:32:23;;;;;;;2.50;0.83;;;;;;;10.12;38.53;102258.03;115690;1212;62504;-75
2021/04/15 11:35:04;;;;;;;1.10;0.67;;;;;;;10.15;36.83;102262.23;114658;1212;64329;-78
2021/04/15 11:37:32;;;;;;;5.03;0.90;;;;;;;10.12;36.42;102258.03;115487;1212;62041;-75
2021/04/15 11:40:17;;;;;;;2.05;0.80;;;;;;;10.08;36.85;102261.92;115472;1212;62786;-75
2021/04/15 11:42:44;;;;;;;2.13;0.70;;;;;;;10.10;37.58;102259.98;115534;1212;62200;-76
2021/04/15 11:45:15;;;;;;;1.90;0.90;;;;;;;10.03;37.48;102264.15;115448;1211;62417;-75
2021/04/15 11:47:43;;;;;;;3.00;0.90;;;;;;;9.99;37.60;102263.56;115785;1212;62425;-75
2021/04/15 11:50:19;;;;;;;1.30;0.60;;;;;;;9.85;37.62;102265.72;115617;1212;63450;-76
2021/04/15 11:52:52;;;;;;;2.05;1.00;;;;;;;9.83;38.37;102265.02;115614;1212;62808;-77
2021/04/15 11:55:32;;;;;;;2.00;0.63;;;;;;;9.72;37.33;102260.63;115541;1212;62317;-75
2021/04/15 11:58:09;;;;;;;1.30;0.70;;;;;;;9.62;36.67;102265.86;115612;1212;62249;-76
2021/04/15 12:00:39;;;;;;;2.15;0.60;;;;;;;9.65;37.65;102265.62;115842;1211;62280;-75
2021/04/15 12:03:20;;;;;;;1.67;0.73;;;;;;;9.69;37.20;102259.09;115849;1211;62374;-76
2021/04/15 12:05:52;;;;;;;1.83;0.57;;;;;;;9.90;37.37;102258.20;115572;1212;62428;-75
2021/04/15 12:08:38;;;;;;;1.37;0.60;;;;;;;10.16;35.18;102248.84;115537;1212;62352;-76
2021/04/15 12:11:21;;;;;;;1.80;0.70;;;;;;;10.49;36.08;102257.48;115827;1212;62806;-76
2021/04/15 12:13:57;;;;;;;1.10;0.60;;;;;;;10.82;34.15;102244.84;115597;1212;61817;-73
2021/04/15 12:16:46;;;;;;;1.83;0.50;;;;;;;11.08;33.36;102228.35;115575;1212;62377;-73
2021/04/15 12:19:19;;;;;;;1.10;0.60;;;;;;;11.27;33.42;102236.30;115825;1212;62871;-73
2021/04/15 12:21:56;;;;;;;2.70;0.60;;;;;;;11.34;33.33;102240.05;115551;1212;62899;-73